Terminal Aerodrome Forecast
Issued by NWS

Home | Current Version | Previous Version | Text Only | Print | Product List | Glossary Off
Versions: 1 2 3 4 5 6 7 8 9 10 11 12 13 14 15 16

000
FTUS43 KICT 141140
TAFRSL
TAF
KRSL 141140Z 1412/1512 08007KT 1SM BR OVC001
     FM141400 12007KT 3SM BR OVC007
     FM141600 19012KT P6SM BKN080
     FM141800 29012G20KT P6SM SCT080
     FM142000 31020G30KT P6SM SCT200
     FM150000 33028G38KT P6SM SCT250
     FM150800 34015G25KT P6SM SCT250=

USA.gov is the U.S. government's official web portal to all federal, state and local government web resources and services.